createdAt,value
2023-04-25T00:02:27.014Z,8.97
2023-04-25T00:04:54.813Z,9.00
2023-04-25T00:07:22.675Z,8.73
2023-04-25T00:09:49.930Z,10.53
2023-04-25T00:12:18.125Z,10.90
2023-04-25T00:14:46.618Z,8.17
2023-04-25T00:17:13.949Z,8.67
2023-04-25T00:19:41.165Z,7.90
2023-04-25T00:22:08.891Z,8.20
2023-04-25T00:24:36.060Z,8.73
2023-04-25T00:27:03.185Z,8.60
2023-04-25T00:29:30.372Z,6.97
2023-04-25T00:31:57.538Z,7.13
2023-04-25T00:34:24.872Z,7.07
2023-04-25T00:36:52.140Z,6.67
2023-04-25T00:39:19.356Z,8.53
2023-04-25T00:41:47.117Z,7.20
2023-04-25T00:44:16.234Z,8.53
2023-04-25T00:46:44.331Z,8.67
2023-04-25T00:49:16.538Z,7.90
2023-04-25T00:51:45.833Z,9.63
2023-04-25T00:54:14.753Z,8.07
2023-04-25T00:56:42.599Z,10.00
2023-04-25T00:59:11.232Z,7.37
2023-04-25T01:01:40.288Z,8.80
2023-04-25T01:04:08.054Z,10.97
2023-04-25T01:06:35.657Z,6.27
2023-04-25T01:09:05.733Z,8.10
2023-04-25T01:11:33.067Z,6.97
2023-04-25T01:14:00.340Z,7.23
2023-04-25T01:16:27.981Z,7.40
2023-04-25T01:18:56.286Z,5.97
2023-04-25T01:21:23.653Z,7.37
2023-04-25T01:23:51.542Z,7.33
2023-04-25T01:26:19.632Z,8.97
2023-04-25T01:28:46.968Z,8.37
2023-04-25T01:31:16.491Z,6.43
2023-04-25T01:33:43.867Z,11.40
2023-04-25T01:36:11.758Z,10.23
2023-04-25T01:38:39.384Z,8.83
2023-04-25T01:41:06.953Z,10.63
2023-04-25T01:43:34.558Z,10.70
2023-04-25T01:46:01.876Z,7.17
2023-04-25T01:48:29.164Z,8.70
2023-04-25T01:55:33.287Z,6.47
2023-04-25T01:58:01.679Z,8.83
2023-04-25T02:00:28.873Z,6.03
2023-04-25T02:03:00.215Z,8.87
2023-04-25T02:05:27.507Z,6.40
2023-04-25T02:07:54.741Z,7.37
2023-04-25T02:10:22.010Z,9.27
2023-04-25T02:12:49.099Z,7.20
2023-04-25T02:15:16.530Z,7.43
2023-04-25T02:17:43.747Z,9.53
2023-04-25T02:20:11.955Z,9.13
2023-04-25T02:22:39.121Z,7.97
2023-04-25T02:25:07.245Z,8.40
2023-04-25T02:27:34.520Z,7.03
2023-04-25T02:30:02.070Z,6.93
2023-04-25T02:32:29.286Z,9.13
2023-04-25T02:34:56.615Z,6.67
2023-04-25T02:37:23.807Z,8.57
2023-04-25T02:39:51.113Z,10.37
2023-04-25T02:42:18.268Z,8.10
2023-04-25T02:44:45.482Z,10.37
2023-04-25T02:47:12.702Z,8.03
2023-04-25T02:49:39.811Z,7.77
2023-04-25T02:52:07.737Z,7.63
2023-04-25T02:54:34.981Z,8.60
2023-04-25T02:57:04.002Z,10.87
2023-04-25T02:59:31.269Z,8.63
2023-04-25T03:01:58.631Z,8.40
2023-04-25T03:04:26.165Z,9.97
2023-04-25T03:06:54.326Z,10.17
2023-04-25T03:09:21.762Z,10.10
2023-04-25T03:11:49.017Z,8.73
2023-04-25T03:14:16.457Z,7.70
2023-04-25T03:16:43.694Z,9.20
2023-04-25T03:19:10.831Z,6.90
2023-04-25T03:21:38.428Z,8.83
2023-04-25T03:24:07.320Z,8.43
2023-04-25T03:26:34.561Z,7.97
2023-04-25T03:29:04.010Z,10.07
2023-04-25T03:31:31.919Z,10.80
2023-04-25T03:33:59.206Z,10.30
2023-04-25T03:36:26.438Z,6.07
2023-04-25T03:38:53.897Z,6.47
2023-04-25T03:41:21.338Z,10.47
2023-04-25T03:43:48.873Z,10.43
2023-04-25T03:46:18.460Z,11.43
2023-04-25T03:48:45.634Z,8.70
2023-04-25T03:51:13.473Z,7.47
2023-04-25T03:53:40.688Z,10.20
2023-04-25T03:56:08.441Z,8.53
2023-04-25T03:58:35.621Z,7.80
2023-04-25T04:01:08.476Z,10.13
2023-04-25T04:03:37.656Z,9.33
2023-04-25T04:06:10.395Z,8.50
2023-04-25T04:08:37.888Z,10.17
2023-04-25T04:11:05.094Z,9.83
2023-04-25T04:13:32.335Z,10.00
2023-04-25T04:16:00.852Z,13.57
2023-04-25T04:18:28.546Z,8.67
2023-04-25T04:20:55.922Z,9.27
2023-04-25T04:23:23.977Z,12.70
2023-04-25T04:25:51.278Z,11.17
2023-04-25T04:28:19.008Z,8.97
2023-04-25T04:30:47.279Z,10.60
2023-04-25T04:33:16.299Z,10.53
2023-04-25T04:35:44.069Z,10.07
2023-04-25T04:38:12.898Z,11.90
2023-04-25T04:40:44.382Z,9.60
2023-04-25T04:43:11.772Z,11.23
2023-04-25T04:45:41.893Z,10.60
2023-04-25T04:48:09.909Z,7.90
2023-04-25T04:50:37.395Z,10.40
2023-04-25T04:53:06.375Z,11.67
2023-04-25T04:55:33.826Z,12.57
2023-04-25T05:02:11.595Z,8.83
2023-04-25T05:04:41.762Z,10.07
2023-04-25T05:07:09.457Z,7.97
2023-04-25T05:13:37.009Z,11.80
2023-04-25T05:16:10.320Z,8.83
2023-04-25T05:18:37.667Z,7.97
2023-04-25T05:21:05.155Z,9.40
2023-04-25T05:23:34.337Z,10.53
2023-04-25T05:26:01.496Z,9.50
2023-04-25T05:28:29.005Z,9.67
2023-04-25T05:30:59.150Z,14.40
2023-04-25T05:37:36.901Z,10.23
2023-04-25T05:40:11.626Z,12.57
2023-04-25T05:42:38.988Z,12.67
2023-04-25T05:45:06.960Z,10.90
2023-04-25T05:47:34.091Z,9.67
2023-04-25T05:50:01.371Z,12.77
2023-04-25T05:52:28.574Z,9.13
2023-04-25T05:54:55.675Z,11.13
2023-04-25T05:57:28.030Z,11.60
2023-04-25T05:59:55.659Z,9.47
2023-04-25T06:02:23.164Z,16.53
2023-04-25T06:04:54.594Z,8.30
2023-04-25T06:07:22.067Z,13.40
2023-04-25T06:09:50.499Z,11.23
2023-04-25T06:12:17.736Z,15.80
2023-04-25T06:14:45.187Z,15.57
2023-04-25T06:17:12.284Z,12.97
2023-04-25T06:19:39.564Z,11.73
2023-04-25T06:22:09.332Z,10.03
2023-04-25T06:24:36.641Z,9.00
2023-04-25T06:27:03.951Z,13.10
2023-04-25T06:29:52.099Z,10.77
2023-04-25T06:32:19.400Z,12.07
2023-04-25T06:34:46.793Z,9.83
2023-04-25T06:37:14.933Z,9.90
2023-04-25T06:39:42.169Z,11.50
2023-04-25T06:42:09.694Z,9.13
2023-04-25T06:44:37.058Z,7.97
2023-04-25T06:47:06.201Z,10.77
2023-04-25T06:49:36.193Z,12.30
2023-04-25T06:52:04.147Z,9.33
2023-04-25T06:54:31.626Z,8.53
2023-04-25T06:56:58.826Z,9.50
2023-04-25T06:59:26.048Z,10.23
2023-04-25T07:01:53.432Z,10.57
2023-04-25T07:04:21.038Z,8.37
2023-04-25T07:06:49.650Z,9.70
2023-04-25T07:09:17.678Z,8.47
2023-04-25T07:11:44.934Z,6.97
2023-04-25T07:14:12.238Z,10.37
2023-04-25T07:16:39.858Z,9.80
2023-04-25T07:19:07.139Z,11.30
2023-04-25T07:21:34.550Z,7.83
2023-04-25T07:24:02.043Z,8.80
2023-04-25T07:26:29.353Z,10.00
2023-04-25T07:28:56.643Z,6.53
2023-04-25T07:31:24.515Z,8.43
2023-04-25T07:33:51.927Z,6.47
2023-04-25T07:36:19.398Z,9.90
2023-04-25T07:38:46.701Z,7.57
2023-04-25T07:41:16.697Z,8.03
2023-04-25T07:43:44.056Z,7.67
2023-04-25T07:46:11.598Z,9.97
2023-04-25T07:48:39.094Z,7.47
2023-04-25T07:51:08.362Z,7.07
2023-04-25T07:53:37.059Z,6.97
2023-04-25T07:56:07.868Z,5.40
2023-04-25T07:58:35.301Z,7.53
2023-04-25T08:01:02.458Z,7.53
2023-04-25T08:03:29.955Z,8.07
2023-04-25T08:05:59.763Z,7.97
2023-04-25T08:08:29.576Z,7.57
2023-04-25T08:10:57.289Z,7.37
2023-04-25T08:13:24.558Z,7.37
2023-04-25T08:15:52.088Z,9.23
2023-04-25T08:18:19.527Z,5.73
2023-04-25T08:20:46.942Z,7.17
2023-04-25T08:23:14.505Z,6.40
2023-04-25T08:25:41.692Z,6.23
2023-04-25T08:28:08.953Z,5.03
2023-04-25T08:30:36.462Z,7.87
2023-04-25T08:33:06.776Z,7.27
2023-04-25T08:35:35.316Z,4.87
2023-04-25T08:38:05.879Z,6.27
2023-04-25T08:40:42.754Z,9.20
2023-04-25T08:43:13.318Z,6.97
2023-04-25T08:45:43.174Z,6.00
2023-04-25T08:48:18.083Z,4.40
2023-04-25T08:50:54.925Z,8.70
2023-04-25T08:53:33.898Z,5.90
2023-04-25T08:56:03.205Z,3.70
2023-04-25T08:58:30.948Z,6.37
2023-04-25T09:00:58.385Z,5.47
2023-04-25T09:03:25.744Z,4.23
2023-04-25T09:05:54.239Z,4.37
2023-04-25T09:08:21.527Z,5.43
2023-04-25T09:10:48.969Z,8.60
2023-04-25T09:13:29.711Z,4.73
2023-04-25T09:15:59.070Z,7.27
2023-04-25T09:18:35.270Z,5.13
2023-04-25T09:21:14.748Z,7.67
2023-04-25T09:23:46.730Z,6.67
2023-04-25T09:26:20.911Z,3.90
2023-04-25T09:28:51.336Z,5.53
2023-04-25T09:31:27.583Z,5.63
2023-04-25T09:34:04.810Z,4.30
2023-04-25T09:36:33.214Z,5.00
2023-04-25T09:39:02.433Z,6.10
2023-04-25T09:41:33.991Z,5.83
2023-04-25T09:44:02.630Z,5.77
2023-04-25T09:46:39.384Z,8.73
2023-04-25T09:49:09.901Z,4.33
2023-04-25T09:51:37.309Z,7.27
2023-04-25T09:54:06.892Z,3.80
2023-04-25T09:56:39.009Z,6.87
2023-04-25T09:59:08.295Z,4.43
2023-04-25T10:01:42.837Z,3.57
2023-04-25T10:04:14.483Z,5.07
2023-04-25T10:06:44.599Z,4.77
2023-04-25T10:09:13.842Z,5.10
2023-04-25T10:11:42.028Z,4.13
2023-04-25T10:14:10.301Z,4.70
2023-04-25T10:16:39.093Z,5.53
2023-04-25T10:19:07.398Z,4.00
2023-04-25T10:21:37.288Z,3.83
2023-04-25T10:24:05.472Z,4.67
2023-04-25T10:26:33.520Z,4.97
2023-04-25T10:29:04.055Z,8.50
2023-04-25T10:31:33.401Z,4.00
2023-04-25T10:34:06.761Z,3.47
2023-04-25T10:36:35.363Z,5.50
2023-04-25T10:39:10.360Z,5.53
2023-04-25T10:42:01.191Z,4.40
2023-04-25T10:44:30.349Z,4.57
2023-04-25T10:46:59.490Z,4.20
2023-04-25T10:49:42.440Z,5.50
2023-04-25T10:52:14.906Z,4.03
2023-04-25T10:54:57.296Z,4.03
2023-04-25T10:57:43.146Z,3.10
2023-04-25T11:00:25.656Z,5.67
2023-04-25T11:07:26.594Z,3.30
2023-04-25T11:09:57.374Z,3.30
2023-04-25T11:12:28.758Z,2.57
2023-04-25T11:15:14.043Z,2.17
2023-04-25T11:17:48.157Z,1.67
2023-04-25T11:20:17.215Z,3.97
2023-04-25T11:25:31.875Z,2.43
2023-04-25T11:28:04.709Z,2.27
2023-04-25T11:30:37.769Z,4.03
2023-04-25T11:33:06.312Z,2.40
2023-04-25T11:35:36.200Z,4.63
2023-04-25T11:38:03.516Z,2.77
2023-04-25T11:41:10.085Z,2.27
2023-04-25T11:43:37.444Z,2.47
2023-04-25T11:50:33.775Z,2.27
2023-04-25T11:53:04.918Z,2.97
2023-04-25T11:55:32.437Z,3.53
2023-04-25T11:58:02.565Z,1.87
2023-04-25T12:00:30.141Z,2.23
2023-04-25T12:07:11.730Z,3.57
2023-04-25T12:09:38.950Z,2.83
2023-04-25T12:12:07.088Z,2.67
2023-04-25T12:14:37.144Z,2.80
2023-04-25T12:17:09.180Z,3.77
2023-04-25T12:19:41.826Z,2.50
2023-04-25T12:22:24.860Z,3.00
2023-04-25T12:24:54.425Z,2.60
2023-04-25T12:27:21.714Z,2.13
2023-04-25T12:29:59.551Z,2.30
2023-04-25T12:32:27.912Z,4.13
2023-04-25T12:35:01.212Z,3.13
2023-04-25T12:37:33.364Z,3.97
2023-04-25T12:40:00.902Z,5.03
2023-04-25T12:46:28.428Z,4.73
2023-04-25T12:52:55.897Z,3.73
2023-04-25T12:55:23.067Z,2.30
2023-04-25T13:02:01.187Z,3.30
2023-04-25T13:04:29.324Z,3.87
2023-04-25T13:06:59.191Z,3.70
2023-04-25T13:09:28.150Z,3.90
2023-04-25T13:11:57.293Z,3.20
2023-04-25T13:18:39.201Z,2.90
2023-04-25T13:21:07.045Z,2.70
2023-04-25T13:23:53.232Z,3.83
2023-04-25T13:26:23.704Z,2.73
2023-04-25T13:28:50.915Z,3.97
2023-04-25T13:31:18.175Z,4.43
2023-04-25T13:33:45.826Z,3.03
2023-04-25T13:36:13.027Z,3.93
2023-04-25T13:38:40.662Z,4.03
2023-04-25T13:41:08.461Z,4.07
2023-04-25T13:43:37.245Z,3.03
2023-04-25T13:46:05.221Z,3.67
2023-04-25T13:48:32.534Z,1.97
2023-04-25T13:50:59.859Z,3.87
2023-04-25T13:53:27.357Z,3.57
2023-04-25T13:55:54.515Z,1.70
2023-04-25T13:58:21.928Z,1.63
2023-04-25T14:00:49.392Z,1.73
2023-04-25T14:03:16.662Z,4.17
2023-04-25T14:05:47.434Z,2.33
2023-04-25T14:08:35.518Z,2.57
2023-04-25T14:11:04.063Z,3.07
2023-04-25T14:13:35.003Z,3.67
2023-04-25T14:16:03.459Z,6.23
2023-04-25T14:18:31.987Z,4.27
2023-04-25T14:20:59.499Z,3.10
2023-04-25T14:23:26.861Z,4.30
2023-04-25T14:25:54.309Z,3.43
2023-04-25T14:28:21.609Z,3.20
2023-04-25T14:30:48.877Z,3.77
2023-04-25T14:33:16.176Z,5.27
2023-04-25T14:35:43.570Z,2.60
2023-04-25T14:38:12.519Z,3.13
2023-04-25T14:40:42.970Z,3.60
2023-04-25T14:43:10.370Z,3.73
2023-04-25T14:45:38.449Z,3.40
2023-04-25T14:48:06.181Z,2.73
2023-04-25T14:50:33.929Z,3.20
2023-04-25T14:53:04.243Z,2.30
2023-04-25T14:55:31.730Z,3.43
2023-04-25T14:58:00.311Z,2.77
2023-04-25T15:00:27.890Z,3.30
2023-04-25T15:02:55.339Z,3.80
2023-04-25T15:05:22.545Z,2.97
2023-04-25T15:07:49.758Z,2.40
2023-04-25T15:10:19.755Z,3.97
2023-04-25T15:13:19.324Z,5.07
2023-04-25T15:15:45.065Z,3.73
2023-04-25T15:18:18.857Z,5.60
2023-04-25T15:20:49.080Z,3.53
2023-04-25T15:23:16.793Z,3.33
2023-04-25T15:25:44.324Z,4.80
2023-04-25T15:28:11.595Z,3.90
2023-04-25T15:30:38.987Z,4.10
2023-04-25T15:33:06.184Z,3.30
2023-04-25T15:35:33.742Z,3.13
2023-04-25T15:38:01.223Z,4.67
2023-04-25T15:40:43.134Z,2.90
2023-04-25T15:43:17.119Z,3.43
2023-04-25T15:45:48.782Z,5.77
2023-04-25T15:48:16.059Z,3.60
2023-04-25T15:50:43.527Z,3.17
2023-04-25T15:53:11.480Z,2.67
2023-04-25T15:55:41.060Z,2.50
2023-04-25T15:58:10.574Z,3.83
2023-04-25T16:00:40.474Z,3.77
2023-04-25T16:03:09.722Z,2.10
2023-04-25T16:05:39.686Z,4.03
2023-04-25T16:08:09.023Z,2.80
2023-04-25T16:10:38.909Z,3.20
2023-04-25T16:13:06.189Z,2.73
2023-04-25T16:15:35.507Z,2.53
2023-04-25T16:18:03.900Z,3.03
2023-04-25T16:20:31.345Z,2.93
2023-04-25T16:22:58.497Z,4.10
2023-04-25T16:25:25.873Z,3.60
2023-04-25T16:27:54.236Z,3.30
2023-04-25T16:30:23.115Z,3.20
2023-04-25T16:32:55.336Z,3.70
2023-04-25T16:35:24.894Z,4.03
2023-04-25T16:37:52.973Z,3.93
2023-04-25T16:40:22.029Z,4.17
2023-04-25T16:42:55.558Z,2.80
2023-04-25T16:45:27.098Z,4.03
2023-04-25T16:47:55.091Z,4.63
2023-04-25T16:50:36.179Z,2.83
2023-04-25T16:53:07.810Z,2.93
2023-04-25T16:55:37.374Z,1.97
2023-04-25T16:58:22.708Z,2.73
2023-04-25T17:00:59.534Z,4.13
2023-04-25T17:03:33.101Z,3.40
2023-04-25T17:06:10.434Z,2.87
2023-04-25T17:08:43.004Z,3.50
2023-04-25T17:11:16.200Z,2.40
2023-04-25T17:16:38.624Z,3.30
2023-04-25T17:19:07.823Z,3.70
2023-04-25T17:21:35.280Z,3.93
2023-04-25T17:24:06.112Z,4.63
2023-04-25T17:26:33.596Z,3.60
2023-04-25T17:29:00.978Z,3.40
2023-04-25T17:31:32.611Z,4.90
2023-04-25T17:34:01.029Z,3.07
2023-04-25T17:36:28.678Z,3.50
2023-04-25T17:38:56.099Z,4.10
2023-04-25T17:41:23.673Z,4.20
2023-04-25T17:43:51.582Z,3.37
2023-04-25T17:46:21.636Z,3.17
2023-04-25T17:48:49.659Z,4.90
2023-04-25T17:51:17.148Z,4.20
2023-04-25T17:53:44.700Z,2.43
2023-04-25T17:56:23.407Z,4.27
2023-04-25T17:58:54.502Z,3.87
2023-04-25T18:01:22.863Z,3.60
2023-04-25T18:03:50.626Z,4.13
2023-04-25T18:06:19.473Z,3.83
2023-04-25T18:08:50.887Z,3.27
2023-04-25T18:11:18.582Z,3.83
2023-04-25T18:13:53.334Z,4.83
2023-04-25T18:16:21.189Z,2.77
2023-04-25T18:18:56.026Z,3.87
2023-04-25T18:21:23.760Z,3.33
2023-04-25T18:23:51.364Z,4.13
2023-04-25T18:26:18.958Z,3.47
2023-04-25T18:28:48.962Z,2.70
2023-04-25T18:31:17.687Z,3.30
2023-04-25T18:33:50.838Z,3.50
2023-04-25T18:36:18.871Z,3.27
2023-04-25T18:38:50.738Z,4.40
2023-04-25T18:41:42.138Z,4.27
2023-04-25T18:44:07.734Z,2.97
2023-04-25T18:46:36.486Z,5.07
2023-04-25T18:49:04.192Z,4.13
2023-04-25T18:51:32.224Z,3.33
2023-04-25T18:54:05.825Z,3.70
2023-04-25T18:56:33.134Z,3.87
2023-04-25T18:59:00.732Z,4.57
2023-04-25T19:01:28.627Z,4.93
2023-04-25T19:03:57.162Z,5.23
2023-04-25T19:06:29.608Z,5.43
2023-04-25T19:08:58.021Z,4.13
2023-04-25T19:11:26.188Z,3.23
2023-04-25T19:13:57.069Z,4.13
2023-04-25T19:16:26.666Z,5.17
2023-04-25T19:18:57.937Z,4.60
2023-04-25T19:21:25.800Z,4.43
2023-04-25T19:23:54.789Z,6.17
2023-04-25T19:26:22.936Z,5.20
2023-04-25T19:29:10.746Z,4.13
2023-04-25T19:31:40.065Z,3.83
2023-04-25T19:34:09.571Z,3.57
2023-04-25T19:36:42.595Z,4.30
2023-04-25T19:39:14.325Z,4.07
2023-04-25T19:41:44.918Z,5.50
2023-04-25T19:44:12.822Z,6.97
2023-04-25T19:46:40.632Z,4.43
2023-04-25T19:49:10.267Z,3.27
2023-04-25T19:51:39.426Z,4.27
2023-04-25T19:54:07.167Z,3.57
2023-04-25T19:56:34.892Z,2.33
2023-04-25T19:59:06.181Z,5.67
2023-04-25T20:01:36.336Z,4.67
2023-04-25T20:04:06.322Z,3.10
2023-04-25T20:06:35.950Z,4.93
2023-04-25T20:09:04.308Z,4.07
2023-04-25T20:11:34.426Z,7.07
2023-04-25T20:14:02.255Z,6.30
2023-04-25T20:16:29.971Z,4.47
2023-04-25T20:18:58.432Z,3.47
2023-04-25T20:21:27.280Z,3.07
2023-04-25T20:23:55.196Z,1.97
2023-04-25T20:26:23.621Z,4.33
2023-04-25T20:28:57.706Z,3.13
2023-04-25T20:31:26.075Z,3.63
2023-04-25T20:33:53.577Z,3.80
2023-04-25T20:36:21.905Z,4.33
2023-04-25T20:38:49.802Z,5.50
2023-04-25T20:41:18.673Z,2.93
2023-04-25T20:43:53.344Z,5.07
2023-04-25T20:46:21.391Z,4.00
2023-04-25T20:48:49.286Z,3.57
2023-04-25T20:51:17.200Z,3.23
2023-04-25T20:53:45.890Z,4.03
2023-04-25T20:56:14.756Z,4.13
2023-04-25T20:58:42.604Z,2.83
2023-04-25T21:01:12.039Z,3.60
2023-04-25T21:03:40.365Z,5.77
2023-04-25T21:06:11.332Z,5.03
2023-04-25T21:08:38.729Z,4.40
2023-04-25T21:11:06.426Z,4.57
2023-04-25T21:13:34.436Z,3.83
2023-04-25T21:16:02.722Z,5.83
2023-04-25T21:18:32.262Z,4.47
2023-04-25T21:20:59.612Z,4.60
2023-04-25T21:23:28.962Z,3.53
2023-04-25T21:25:56.192Z,5.40
2023-04-25T21:28:26.458Z,5.50
2023-04-25T21:30:53.844Z,4.70
2023-04-25T21:33:21.040Z,5.37
2023-04-25T21:35:48.367Z,4.43
2023-04-25T21:38:16.321Z,5.97
2023-04-25T21:40:43.729Z,4.77
2023-04-25T21:43:13.517Z,5.67
2023-04-25T21:46:05.785Z,6.03
2023-04-25T21:48:28.498Z,5.80
2023-04-25T21:50:56.308Z,5.63
2023-04-25T21:53:26.633Z,4.27
2023-04-25T21:55:56.192Z,6.53
2023-04-25T21:58:23.699Z,6.17
2023-04-25T22:00:51.138Z,3.43
2023-04-25T22:03:20.555Z,4.70
2023-04-25T22:05:48.695Z,6.00
2023-04-25T22:09:25.884Z,3.67
2023-04-25T22:11:54.158Z,4.37
2023-04-25T22:14:25.720Z,5.57
2023-04-25T22:16:54.612Z,5.27
2023-04-25T22:19:22.062Z,5.07
2023-04-25T22:21:49.984Z,5.27
2023-04-25T22:24:17.559Z,5.97
2023-04-25T22:26:46.906Z,6.03
2023-04-25T22:29:17.394Z,2.97
2023-04-25T22:31:50.148Z,5.20
2023-04-25T22:34:17.600Z,5.27
2023-04-25T22:36:45.490Z,4.80
2023-04-25T22:39:15.634Z,3.47
2023-04-25T22:54:03.391Z,3.50
2023-04-25T22:56:31.024Z,5.20
2023-04-25T22:58:58.408Z,5.13
2023-04-25T23:01:26.110Z,3.80
2023-04-25T23:03:54.444Z,7.63
2023-04-25T23:06:23.545Z,5.07
2023-04-25T23:08:51.476Z,4.83
2023-04-25T23:11:22.021Z,5.17
2023-04-25T23:13:53.195Z,6.50
2023-04-25T23:16:29.600Z,8.83
2023-04-25T23:18:57.183Z,7.17
2023-04-25T23:21:28.730Z,5.23
2023-04-25T23:23:56.053Z,6.03
2023-04-25T23:26:23.391Z,4.90
2023-04-25T23:28:51.148Z,6.63
2023-04-25T23:31:18.369Z,6.00
2023-04-25T23:33:45.987Z,5.20
2023-04-25T23:36:21.513Z,6.00
2023-04-25T23:38:50.724Z,4.97
2023-04-25T23:41:18.261Z,5.77
2023-04-25T23:43:45.820Z,5.77
2023-04-25T23:46:13.704Z,5.37
2023-04-25T23:48:41.550Z,7.60
2023-04-25T23:51:08.704Z,8.93
2023-04-25T23:53:35.976Z,5.43
2023-04-25T23:56:03.940Z,4.60
2023-04-25T23:58:31.195Z,7.07
